sensor_id;sensor_type;location;lat;lon;timestamp;P1;durP1;ratioP1;P2;durP2;ratioP2
10657;SDS011;5377;43.276;26.930;2023-12-20T00:01:24;26.73;;;19.93;;
10657;SDS011;5377;43.276;26.930;2023-12-20T00:03:51;29.63;;;20.10;;
10657;SDS011;5377;43.276;26.930;2023-12-20T00:06:17;35.67;;;23.90;;
10657;SDS011;5377;43.276;26.930;2023-12-20T00:08:44;35.00;;;25.20;;
10657;SDS011;5377;43.276;26.930;2023-12-20T00:11:10;28.43;;;21.13;;
10657;SDS011;5377;43.276;26.930;2023-12-20T00:13:37;33.93;;;21.97;;
10657;SDS011;5377;43.276;26.930;2023-12-20T00:16:04;29.60;;;21.07;;
10657;SDS011;5377;43.276;26.930;2023-12-20T00:18:32;33.30;;;22.93;;
10657;SDS011;5377;43.276;26.930;2023-12-20T00:20:58;39.40;;;25.50;;
10657;SDS011;5377;43.276;26.930;2023-12-20T00:23:25;32.20;;;23.27;;
10657;SDS011;5377;43.276;26.930;2023-12-20T00:25:51;30.07;;;18.97;;
10657;SDS011;5377;43.276;26.930;2023-12-20T00:28:18;25.90;;;19.33;;
10657;SDS011;5377;43.276;26.930;2023-12-20T00:30:44;27.43;;;19.90;;
10657;SDS011;5377;43.276;26.930;2023-12-20T00:33:11;27.87;;;18.33;;
10657;SDS011;5377;43.276;26.930;2023-12-20T00:35:39;34.03;;;23.03;;
10657;SDS011;5377;43.276;26.930;2023-12-20T00:38:05;27.20;;;20.77;;
10657;SDS011;5377;43.276;26.930;2023-12-20T00:40:32;29.80;;;21.23;;
10657;SDS011;5377;43.276;26.930;2023-12-20T00:42:58;30.03;;;20.63;;
10657;SDS011;5377;43.276;26.930;2023-12-20T00:45:25;36.17;;;25.13;;
10657;SDS011;5377;43.276;26.930;2023-12-20T00:47:51;29.57;;;21.17;;
10657;SDS011;5377;43.276;26.930;2023-12-20T00:50:18;21.07;;;14.33;;
10657;SDS011;5377;43.276;26.930;2023-12-20T00:52:48;30.13;;;21.43;;
10657;SDS011;5377;43.276;26.930;2023-12-20T00:55:14;23.73;;;16.43;;
10657;SDS011;5377;43.276;26.930;2023-12-20T00:57:41;25.80;;;17.77;;
10657;SDS011;5377;43.276;26.930;2023-12-20T01:00:07;23.27;;;17.57;;
10657;SDS011;5377;43.276;26.930;2023-12-20T01:02:35;20.57;;;14.37;;
10657;SDS011;5377;43.276;26.930;2023-12-20T01:05:01;23.47;;;15.57;;
10657;SDS011;5377;43.276;26.930;2023-12-20T01:07:28;19.90;;;14.13;;
10657;SDS011;5377;43.276;26.930;2023-12-20T01:09:55;16.90;;;11.10;;
10657;SDS011;5377;43.276;26.930;2023-12-20T01:12:22;17.30;;;11.63;;
10657;SDS011;5377;43.276;26.930;2023-12-20T01:14:48;16.17;;;12.30;;
10657;SDS011;5377;43.276;26.930;2023-12-20T01:17:15;17.80;;;11.47;;
10657;SDS011;5377;43.276;26.930;2023-12-20T01:19:41;19.80;;;13.53;;
10657;SDS011;5377;43.276;26.930;2023-12-20T01:22:08;20.30;;;13.93;;
10657;SDS011;5377;43.276;26.930;2023-12-20T01:24:34;16.53;;;12.33;;
10657;SDS011;5377;43.276;26.930;2023-12-20T01:27:02;17.50;;;12.30;;
10657;SDS011;5377;43.276;26.930;2023-12-20T01:29:29;17.93;;;12.37;;
10657;SDS011;5377;43.276;26.930;2023-12-20T01:31:56;18.57;;;14.00;;
10657;SDS011;5377;43.276;26.930;2023-12-20T01:34:22;23.80;;;15.67;;
10657;SDS011;5377;43.276;26.930;2023-12-20T01:36:49;24.73;;;15.13;;
10657;SDS011;5377;43.276;26.930;2023-12-20T01:39:15;21.40;;;16.00;;
10657;SDS011;5377;43.276;26.930;2023-12-20T01:41:42;24.73;;;17.10;;
10657;SDS011;5377;43.276;26.930;2023-12-20T01:44:09;25.43;;;16.67;;
10657;SDS011;5377;43.276;26.930;2023-12-20T01:46:36;17.90;;;14.57;;
10657;SDS011;5377;43.276;26.930;2023-12-20T01:49:03;15.53;;;12.77;;
10657;SDS011;5377;43.276;26.930;2023-12-20T01:51:29;18.70;;;13.43;;
10657;SDS011;5377;43.276;26.930;2023-12-20T01:53:56;24.13;;;16.77;;
10657;SDS011;5377;43.276;26.930;2023-12-20T01:56:24;22.30;;;14.97;;
10657;SDS011;5377;43.276;26.930;2023-12-20T01:58:50;23.40;;;14.90;;
10657;SDS011;5377;43.276;26.930;2023-12-20T02:01:18;24.20;;;16.00;;
10657;SDS011;5377;43.276;26.930;2023-12-20T02:03:45;26.07;;;16.97;;
10657;SDS011;5377;43.276;26.930;2023-12-20T02:06:12;27.80;;;17.83;;
10657;SDS011;5377;43.276;26.930;2023-12-20T02:08:38;23.30;;;16.67;;
10657;SDS011;5377;43.276;26.930;2023-12-20T02:11:05;17.23;;;12.67;;
10657;SDS011;5377;43.276;26.930;2023-12-20T02:13:31;17.97;;;12.70;;
10657;SDS011;5377;43.276;26.930;2023-12-20T02:15:58;18.73;;;13.10;;
10657;SDS011;5377;43.276;26.930;2023-12-20T02:18:26;16.70;;;12.57;;
10657;SDS011;5377;43.276;26.930;2023-12-20T02:20:52;14.03;;;9.90;;
10657;SDS011;5377;43.276;26.930;2023-12-20T02:23:21;16.47;;;11.33;;
10657;SDS011;5377;43.276;26.930;2023-12-20T02:25:48;13.90;;;11.03;;
10657;SDS011;5377;43.276;26.930;2023-12-20T02:28:14;17.70;;;13.13;;
10657;SDS011;5377;43.276;26.930;2023-12-20T02:30:41;23.47;;;13.07;;
10657;SDS011;5377;43.276;26.930;2023-12-20T02:33:08;23.17;;;13.70;;
10657;SDS011;5377;43.276;26.930;2023-12-20T02:35:36;21.47;;;15.17;;
10657;SDS011;5377;43.276;26.930;2023-12-20T02:38:03;20.07;;;13.50;;
10657;SDS011;5377;43.276;26.930;2023-12-20T02:40:31;21.20;;;13.97;;
10657;SDS011;5377;43.276;26.930;2023-12-20T02:42:57;17.03;;;12.20;;
10657;SDS011;5377;43.276;26.930;2023-12-20T02:45:24;16.43;;;12.10;;
10657;SDS011;5377;43.276;26.930;2023-12-20T02:47:51;18.10;;;12.90;;
10657;SDS011;5377;43.276;26.930;2023-12-20T02:50:17;23.60;;;13.00;;
10657;SDS011;5377;43.276;26.930;2023-12-20T02:52:44;19.43;;;12.90;;
10657;SDS011;5377;43.276;26.930;2023-12-20T02:55:10;20.13;;;11.87;;
10657;SDS011;5377;43.276;26.930;2023-12-20T02:57:38;14.73;;;11.20;;
10657;SDS011;5377;43.276;26.930;2023-12-20T03:00:07;14.03;;;9.77;;
10657;SDS011;5377;43.276;26.930;2023-12-20T03:02:34;16.70;;;10.77;;
10657;SDS011;5377;43.276;26.930;2023-12-20T03:05:00;14.93;;;10.80;;
10657;SDS011;5377;43.276;26.930;2023-12-20T03:07:27;18.73;;;11.90;;
10657;SDS011;5377;43.276;26.930;2023-12-20T03:09:54;17.37;;;12.93;;
10657;SDS011;5377;43.276;26.930;2023-12-20T03:12:20;19.70;;;12.87;;
10657;SDS011;5377;43.276;26.930;2023-12-20T03:14:48;18.07;;;11.83;;
10657;SDS011;5377;43.276;26.930;2023-12-20T03:17:14;16.03;;;11.37;;
10657;SDS011;5377;43.276;26.930;2023-12-20T03:19:41;15.33;;;10.60;;
10657;SDS011;5377;43.276;26.930;2023-12-20T03:22:07;15.83;;;12.00;;
10657;SDS011;5377;43.276;26.930;2023-12-20T03:24:34;17.57;;;12.10;;
10657;SDS011;5377;43.276;26.930;2023-12-20T03:27:00;15.40;;;10.97;;
10657;SDS011;5377;43.276;26.930;2023-12-20T03:29:27;14.63;;;10.17;;
10657;SDS011;5377;43.276;26.930;2023-12-20T03:31:55;14.50;;;9.47;;
10657;SDS011;5377;43.276;26.930;2023-12-20T03:34:21;19.90;;;14.07;;
10657;SDS011;5377;43.276;26.930;2023-12-20T03:36:48;17.77;;;12.10;;
10657;SDS011;5377;43.276;26.930;2023-12-20T03:39:14;16.87;;;12.33;;
10657;SDS011;5377;43.276;26.930;2023-12-20T03:41:41;20.50;;;12.33;;
10657;SDS011;5377;43.276;26.930;2023-12-20T03:44:07;16.80;;;12.33;;
10657;SDS011;5377;43.276;26.930;2023-12-20T03:46:34;18.00;;;12.13;;
10657;SDS011;5377;43.276;26.930;2023-12-20T03:49:02;19.77;;;13.00;;
10657;SDS011;5377;43.276;26.930;2023-12-20T03:51:28;16.27;;;13.00;;
10657;SDS011;5377;43.276;26.930;2023-12-20T03:53:55;21.50;;;13.93;;
10657;SDS011;5377;43.276;26.930;2023-12-20T03:56:21;18.90;;;13.77;;
10657;SDS011;5377;43.276;26.930;2023-12-20T03:58:48;22.33;;;16.30;;
10657;SDS011;5377;43.276;26.930;2023-12-20T04:01:14;27.00;;;19.37;;
10657;SDS011;5377;43.276;26.930;2023-12-20T04:03:41;26.60;;;18.63;;
10657;SDS011;5377;43.276;26.930;2023-12-20T04:06:08;38.57;;;25.73;;
10657;SDS011;5377;43.276;26.930;2023-12-20T04:08:35;33.47;;;22.70;;
10657;SDS011;5377;43.276;26.930;2023-12-20T04:11:01;33.13;;;23.37;;
10657;SDS011;5377;43.276;26.930;2023-12-20T04:13:28;31.43;;;18.90;;
10657;SDS011;5377;43.276;26.930;2023-12-20T04:15:54;32.03;;;18.20;;
10657;SDS011;5377;43.276;26.930;2023-12-20T04:18:21;30.50;;;19.97;;
10657;SDS011;5377;43.276;26.930;2023-12-20T04:20:47;23.27;;;16.40;;
10657;SDS011;5377;43.276;26.930;2023-12-20T04:23:15;26.27;;;19.20;;
10657;SDS011;5377;43.276;26.930;2023-12-20T04:25:42;26.67;;;18.53;;
10657;SDS011;5377;43.276;26.930;2023-12-20T04:28:08;26.27;;;18.80;;
10657;SDS011;5377;43.276;26.930;2023-12-20T04:30:35;25.43;;;17.03;;
10657;SDS011;5377;43.276;26.930;2023-12-20T04:33:01;31.27;;;20.50;;
10657;SDS011;5377;43.276;26.930;2023-12-20T04:35:28;25.67;;;19.03;;
10657;SDS011;5377;43.276;26.930;2023-12-20T04:37:55;28.37;;;20.43;;
10657;SDS011;5377;43.276;26.930;2023-12-20T04:40:23;26.33;;;19.57;;
10657;SDS011;5377;43.276;26.930;2023-12-20T04:42:49;32.33;;;19.43;;
10657;SDS011;5377;43.276;26.930;2023-12-20T04:45:16;28.87;;;20.30;;
10657;SDS011;5377;43.276;26.930;2023-12-20T04:47:44;35.20;;;23.53;;
10657;SDS011;5377;43.276;26.930;2023-12-20T04:50:12;35.90;;;23.20;;
10657;SDS011;5377;43.276;26.930;2023-12-20T04:52:39;34.43;;;21.80;;
10657;SDS011;5377;43.276;26.930;2023-12-20T04:55:06;27.60;;;19.97;;
10657;SDS011;5377;43.276;26.930;2023-12-20T04:57:35;36.40;;;24.33;;
10657;SDS011;5377;43.276;26.930;2023-12-20T05:00:01;41.13;;;28.10;;
10657;SDS011;5377;43.276;26.930;2023-12-20T05:02:28;32.87;;;22.37;;
10657;SDS011;5377;43.276;26.930;2023-12-20T05:04:54;34.03;;;23.53;;
10657;SDS011;5377;43.276;26.930;2023-12-20T05:07:21;37.10;;;24.43;;
10657;SDS011;5377;43.276;26.930;2023-12-20T05:09:47;39.73;;;28.47;;
10657;SDS011;5377;43.276;26.930;2023-12-20T05:12:14;41.77;;;27.80;;
10657;SDS011;5377;43.276;26.930;2023-12-20T05:14:42;50.23;;;36.20;;
10657;SDS011;5377;43.276;26.930;2023-12-20T05:17:08;46.43;;;33.73;;
10657;SDS011;5377;43.276;26.930;2023-12-20T05:19:35;41.90;;;27.20;;
10657;SDS011;5377;43.276;26.930;2023-12-20T05:22:01;37.03;;;26.27;;
10657;SDS011;5377;43.276;26.930;2023-12-20T05:24:28;39.67;;;28.00;;
10657;SDS011;5377;43.276;26.930;2023-12-20T05:26:54;44.50;;;30.30;;
10657;SDS011;5377;43.276;26.930;2023-12-20T05:29:21;65.67;;;41.13;;
10657;SDS011;5377;43.276;26.930;2023-12-20T05:31:49;66.40;;;42.17;;
10657;SDS011;5377;43.276;26.930;2023-12-20T05:34:15;51.83;;;34.20;;
10657;SDS011;5377;43.276;26.930;2023-12-20T05:36:42;44.87;;;31.07;;
10657;SDS011;5377;43.276;26.930;2023-12-20T05:39:08;68.30;;;42.47;;
10657;SDS011;5377;43.276;26.930;2023-12-20T05:41:35;88.17;;;58.10;;
10657;SDS011;5377;43.276;26.930;2023-12-20T05:44:01;95.17;;;59.83;;
10657;SDS011;5377;43.276;26.930;2023-12-20T05:46:28;59.47;;;38.70;;
10657;SDS011;5377;43.276;26.930;2023-12-20T05:48:56;61.93;;;38.83;;
10657;SDS011;5377;43.276;26.930;2023-12-20T05:51:22;62.33;;;42.23;;
10657;SDS011;5377;43.276;26.930;2023-12-20T05:53:49;57.03;;;41.27;;
10657;SDS011;5377;43.276;26.930;2023-12-20T05:56:16;54.73;;;36.03;;
10657;SDS011;5377;43.276;26.930;2023-12-20T05:58:42;59.13;;;37.77;;
10657;SDS011;5377;43.276;26.930;2023-12-20T06:01:09;50.17;;;33.40;;
10657;SDS011;5377;43.276;26.930;2023-12-20T06:03:35;60.53;;;33.50;;
10657;SDS011;5377;43.276;26.930;2023-12-20T06:06:05;59.07;;;33.33;;
10657;SDS011;5377;43.276;26.930;2023-12-20T06:08:32;99.97;;;53.83;;
10657;SDS011;5377;43.276;26.930;2023-12-20T06:10:59;110.20;;;59.77;;
10657;SDS011;5377;43.276;26.930;2023-12-20T06:13:25;114.87;;;60.87;;
10657;SDS011;5377;43.276;26.930;2023-12-20T06:15:52;117.23;;;57.33;;
10657;SDS011;5377;43.276;26.930;2023-12-20T06:18:18;118.77;;;57.50;;
10657;SDS011;5377;43.276;26.930;2023-12-20T06:20:45;122.77;;;59.87;;
10657;SDS011;5377;43.276;26.930;2023-12-20T06:23:12;128.87;;;60.30;;
10657;SDS011;5377;43.276;26.930;2023-12-20T06:25:39;111.80;;;57.73;;
10657;SDS011;5377;43.276;26.930;2023-12-20T06:28:06;141.37;;;62.40;;
10657;SDS011;5377;43.276;26.930;2023-12-20T06:30:33;132.70;;;61.10;;
10657;SDS011;5377;43.276;26.930;2023-12-20T06:32:59;154.27;;;75.27;;
10657;SDS011;5377;43.276;26.930;2023-12-20T06:35:26;169.30;;;86.47;;
10657;SDS011;5377;43.276;26.930;2023-12-20T06:37:52;137.67;;;67.57;;
10657;SDS011;5377;43.276;26.930;2023-12-20T06:40:20;154.97;;;70.57;;
10657;SDS011;5377;43.276;26.930;2023-12-20T06:42:46;130.90;;;67.40;;
10657;SDS011;5377;43.276;26.930;2023-12-20T06:45:13;128.97;;;65.00;;
10657;SDS011;5377;43.276;26.930;2023-12-20T06:47:39;169.60;;;80.73;;
10657;SDS011;5377;43.276;26.930;2023-12-20T06:50:06;176.13;;;80.30;;
10657;SDS011;5377;43.276;26.930;2023-12-20T06:52:33;150.13;;;74.13;;
10657;SDS011;5377;43.276;26.930;2023-12-20T06:55:00;126.77;;;60.60;;
10657;SDS011;5377;43.276;26.930;2023-12-20T06:57:28;148.17;;;69.83;;
10657;SDS011;5377;43.276;26.930;2023-12-20T06:59:54;164.17;;;73.83;;
10657;SDS011;5377;43.276;26.930;2023-12-20T07:02:21;191.17;;;77.23;;
10657;SDS011;5377;43.276;26.930;2023-12-20T07:04:48;170.68;;;73.40;;
10657;SDS011;5377;43.276;26.930;2023-12-20T07:07:14;151.57;;;65.95;;
10657;SDS011;5377;43.276;26.930;2023-12-20T07:09:40;177.18;;;70.43;;
10657;SDS011;5377;43.276;26.930;2023-12-20T07:12:08;152.05;;;65.88;;
10657;SDS011;5377;43.276;26.930;2023-12-20T07:14:36;120.47;;;57.78;;
10657;SDS011;5377;43.276;26.930;2023-12-20T07:17:02;93.28;;;41.38;;
10657;SDS011;5377;43.276;26.930;2023-12-20T07:19:29;70.93;;;28.70;;
10657;SDS011;5377;43.276;26.930;2023-12-20T07:21:55;72.05;;;25.83;;
10657;SDS011;5377;43.276;26.930;2023-12-20T07:24:22;50.00;;;23.15;;
10657;SDS011;5377;43.276;26.930;2023-12-20T07:26:48;44.05;;;20.70;;
10657;SDS011;5377;43.276;26.930;2023-12-20T07:29:16;24.08;;;16.67;;
10657;SDS011;5377;43.276;26.930;2023-12-20T07:31:43;66.68;;;22.55;;
10657;SDS011;5377;43.276;26.930;2023-12-20T07:34:10;45.83;;;18.88;;
10657;SDS011;5377;43.276;26.930;2023-12-20T07:36:36;62.58;;;19.13;;
10657;SDS011;5377;43.276;26.930;2023-12-20T07:39:03;18.55;;;11.02;;
10657;SDS011;5377;43.276;26.930;2023-12-20T07:41:30;19.83;;;10.93;;
10657;SDS011;5377;43.276;26.930;2023-12-20T07:43:56;41.20;;;13.45;;
10657;SDS011;5377;43.276;26.930;2023-12-20T07:46:23;32.15;;;12.40;;
10657;SDS011;5377;43.276;26.930;2023-12-20T07:48:51;35.33;;;12.45;;
10657;SDS011;5377;43.276;26.930;2023-12-20T07:51:17;36.63;;;12.02;;
10657;SDS011;5377;43.276;26.930;2023-12-20T07:53:44;53.78;;;14.00;;
10657;SDS011;5377;43.276;26.930;2023-12-20T07:56:13;32.33;;;13.85;;
10657;SDS011;5377;43.276;26.930;2023-12-20T07:58:40;85.82;;;21.60;;
10657;SDS011;5377;43.276;26.930;2023-12-20T08:01:07;51.63;;;21.13;;
10657;SDS011;5377;43.276;26.930;2023-12-20T08:03:33;41.75;;;15.15;;
10657;SDS011;5377;43.276;26.930;2023-12-20T08:06:01;25.10;;;8.60;;
10657;SDS011;5377;43.276;26.930;2023-12-20T08:08:28;27.00;;;11.80;;
10657;SDS011;5377;43.276;26.930;2023-12-20T08:10:54;23.48;;;8.63;;
10657;SDS011;5377;43.276;26.930;2023-12-20T08:13:22;38.00;;;10.82;;
10657;SDS011;5377;43.276;26.930;2023-12-20T08:15:51;46.97;;;12.80;;
10657;SDS011;5377;43.276;26.930;2023-12-20T08:18:17;39.90;;;12.25;;
10657;SDS011;5377;43.276;26.930;2023-12-20T08:20:44;50.42;;;16.45;;
10657;SDS011;5377;43.276;26.930;2023-12-20T08:23:12;42.55;;;16.27;;
10657;SDS011;5377;43.276;26.930;2023-12-20T08:25:38;36.55;;;16.67;;
10657;SDS011;5377;43.276;26.930;2023-12-20T08:28:05;69.20;;;22.00;;
10657;SDS011;5377;43.276;26.930;2023-12-20T08:30:31;53.97;;;16.08;;
10657;SDS011;5377;43.276;26.930;2023-12-20T08:32:59;28.60;;;11.38;;
10657;SDS011;5377;43.276;26.930;2023-12-20T08:35:26;40.55;;;12.90;;
10657;SDS011;5377;43.276;26.930;2023-12-20T08:37:52;37.70;;;10.88;;
10657;SDS011;5377;43.276;26.930;2023-12-20T08:40:20;44.25;;;12.20;;
10657;SDS011;5377;43.276;26.930;2023-12-20T08:42:46;27.63;;;11.85;;
10657;SDS011;5377;43.276;26.930;2023-12-20T08:45:13;90.40;;;18.73;;
10657;SDS011;5377;43.276;26.930;2023-12-20T08:47:39;44.45;;;12.68;;
10657;SDS011;5377;43.276;26.930;2023-12-20T08:50:09;21.63;;;9.70;;
10657;SDS011;5377;43.276;26.930;2023-12-20T08:52:36;24.05;;;9.80;;
10657;SDS011;5377;43.276;26.930;2023-12-20T08:55:02;24.20;;;9.60;;
10657;SDS011;5377;43.276;26.930;2023-12-20T08:57:30;11.77;;;7.45;;
10657;SDS011;5377;43.276;26.930;2023-12-20T08:59:58;20.30;;;8.95;;
10657;SDS011;5377;43.276;26.930;2023-12-20T09:02:25;29.60;;;10.65;;
10657;SDS011;5377;43.276;26.930;2023-12-20T09:04:51;34.20;;;11.68;;
10657;SDS011;5377;43.276;26.930;2023-12-20T09:07:21;30.40;;;11.38;;
10657;SDS011;5377;43.276;26.930;2023-12-20T09:09:48;19.10;;;9.43;;
10657;SDS011;5377;43.276;26.930;2023-12-20T09:12:15;61.00;;;15.32;;
10657;SDS011;5377;43.276;26.930;2023-12-20T09:14:42;20.58;;;10.18;;
10657;SDS011;5377;43.276;26.930;2023-12-20T09:17:09;25.75;;;11.20;;
10657;SDS011;5377;43.276;26.930;2023-12-20T09:19:37;80.80;;;35.92;;
10657;SDS011;5377;43.276;26.930;2023-12-20T09:22:03;68.80;;;29.45;;
10657;SDS011;5377;43.276;26.930;2023-12-20T09:24:30;16.48;;;9.40;;
10657;SDS011;5377;43.276;26.930;2023-12-20T09:26:57;30.25;;;11.48;;
10657;SDS011;5377;43.276;26.930;2023-12-20T09:29:23;44.15;;;15.35;;
10657;SDS011;5377;43.276;26.930;2023-12-20T09:31:52;39.72;;;14.15;;
10657;SDS011;5377;43.276;26.930;2023-12-20T09:34:19;57.05;;;15.55;;
10657;SDS011;5377;43.276;26.930;2023-12-20T09:36:46;41.25;;;14.77;;
10657;SDS011;5377;43.276;26.930;2023-12-20T09:39:13;36.22;;;12.85;;
10657;SDS011;5377;43.276;26.930;2023-12-20T09:41:43;39.33;;;14.52;;
10657;SDS011;5377;43.276;26.930;2023-12-20T09:44:09;41.55;;;15.70;;
10657;SDS011;5377;43.276;26.930;2023-12-20T09:46:39;62.72;;;15.73;;
10657;SDS011;5377;43.276;26.930;2023-12-20T09:49:10;35.50;;;13.05;;
10657;SDS011;5377;43.276;26.930;2023-12-20T09:51:37;56.97;;;16.27;;
10657;SDS011;5377;43.276;26.930;2023-12-20T09:54:03;35.85;;;13.00;;
10657;SDS011;5377;43.276;26.930;2023-12-20T09:56:30;30.08;;;13.90;;
10657;SDS011;5377;43.276;26.930;2023-12-20T09:58:56;36.47;;;16.75;;
10657;SDS011;5377;43.276;26.930;2023-12-20T10:01:23;46.60;;;16.77;;
10657;SDS011;5377;43.276;26.930;2023-12-20T10:03:50;32.92;;;14.38;;
10657;SDS011;5377;43.276;26.930;2023-12-20T10:06:18;29.73;;;13.90;;
10657;SDS011;5377;43.276;26.930;2023-12-20T10:08:45;35.95;;;16.20;;
10657;SDS011;5377;43.276;26.930;2023-12-20T10:11:11;48.25;;;17.55;;
10657;SDS011;5377;43.276;26.930;2023-12-20T10:13:39;42.20;;;16.35;;
10657;SDS011;5377;43.276;26.930;2023-12-20T10:16:05;29.65;;;16.35;;
10657;SDS011;5377;43.276;26.930;2023-12-20T10:18:32;20.70;;;13.18;;
10657;SDS011;5377;43.276;26.930;2023-12-20T10:20:59;26.80;;;13.70;;
10657;SDS011;5377;43.276;26.930;2023-12-20T10:23:27;35.83;;;13.57;;
10657;SDS011;5377;43.276;26.930;2023-12-20T10:25:57;41.45;;;8.55;;
10657;SDS011;5377;43.276;26.930;2023-12-20T10:28:24;18.88;;;6.55;;
10657;SDS011;5377;43.276;26.930;2023-12-20T10:30:52;10.23;;;5.32;;
10657;SDS011;5377;43.276;26.930;2023-12-20T10:33:23;19.45;;;6.25;;
10657;SDS011;5377;43.276;26.930;2023-12-20T10:35:50;9.57;;;5.35;;
10657;SDS011;5377;43.276;26.930;2023-12-20T10:38:17;10.68;;;5.68;;
10657;SDS011;5377;43.276;26.930;2023-12-20T10:40:45;9.50;;;5.47;;
10657;SDS011;5377;43.276;26.930;2023-12-20T10:43:11;6.80;;;4.53;;
10657;SDS011;5377;43.276;26.930;2023-12-20T10:45:38;10.30;;;4.65;;
10657;SDS011;5377;43.276;26.930;2023-12-20T10:48:05;12.75;;;5.20;;
10657;SDS011;5377;43.276;26.930;2023-12-20T10:50:32;7.90;;;4.97;;
10657;SDS011;5377;43.276;26.930;2023-12-20T10:52:59;13.55;;;4.53;;
10657;SDS011;5377;43.276;26.930;2023-12-20T10:55:26;13.65;;;7.30;;
10657;SDS011;5377;43.276;26.930;2023-12-20T10:57:54;16.77;;;6.60;;
10657;SDS011;5377;43.276;26.930;2023-12-20T11:00:21;7.07;;;4.30;;
10657;SDS011;5377;43.276;26.930;2023-12-20T11:02:49;36.47;;;8.32;;
10657;SDS011;5377;43.276;26.930;2023-12-20T11:05:19;12.70;;;5.60;;
10657;SDS011;5377;43.276;26.930;2023-12-20T11:07:50;8.38;;;4.93;;
10657;SDS011;5377;43.276;26.930;2023-12-20T11:10:19;26.77;;;6.70;;
10657;SDS011;5377;43.276;26.930;2023-12-20T11:12:49;8.90;;;4.00;;
10657;SDS011;5377;43.276;26.930;2023-12-20T11:15:18;9.30;;;4.47;;
10657;SDS011;5377;43.276;26.930;2023-12-20T11:17:44;5.30;;;4.75;;
10657;SDS011;5377;43.276;26.930;2023-12-20T11:20:12;8.05;;;4.40;;
10657;SDS011;5377;43.276;26.930;2023-12-20T11:22:39;5.57;;;4.90;;
10657;SDS011;5377;43.276;26.930;2023-12-20T11:25:07;7.35;;;4.45;;
10657;SDS011;5377;43.276;26.930;2023-12-20T11:27:34;7.13;;;4.40;;
10657;SDS011;5377;43.276;26.930;2023-12-20T11:30:03;7.95;;;4.35;;
10657;SDS011;5377;43.276;26.930;2023-12-20T11:32:33;4.65;;;3.80;;
10657;SDS011;5377;43.276;26.930;2023-12-20T11:35:00;11.80;;;4.45;;
10657;SDS011;5377;43.276;26.930;2023-12-20T11:37:31;3.08;;;2.28;;
10657;SDS011;5377;43.276;26.930;2023-12-20T11:40:00;6.13;;;3.47;;
10657;SDS011;5377;43.276;26.930;2023-12-20T11:42:27;7.07;;;3.60;;
10657;SDS011;5377;43.276;26.930;2023-12-20T11:44:54;5.30;;;3.70;;
10657;SDS011;5377;43.276;26.930;2023-12-20T11:47:22;6.88;;;3.60;;
10657;SDS011;5377;43.276;26.930;2023-12-20T11:49:50;13.68;;;4.40;;
10657;SDS011;5377;43.276;26.930;2023-12-20T11:52:17;14.75;;;5.03;;
10657;SDS011;5377;43.276;26.930;2023-12-20T11:54:43;10.88;;;4.88;;
10657;SDS011;5377;43.276;26.930;2023-12-20T11:57:10;14.52;;;4.82;;
10657;SDS011;5377;43.276;26.930;2023-12-20T11:59:36;9.05;;;5.07;;
10657;SDS011;5377;43.276;26.930;2023-12-20T12:02:03;14.63;;;6.13;;
10657;SDS011;5377;43.276;26.930;2023-12-20T12:04:29;13.32;;;6.00;;
10657;SDS011;5377;43.276;26.930;2023-12-20T12:06:57;17.55;;;5.25;;
10657;SDS011;5377;43.276;26.930;2023-12-20T12:09:24;10.13;;;4.35;;
10657;SDS011;5377;43.276;26.930;2023-12-20T12:11:50;10.38;;;3.97;;
10657;SDS011;5377;43.276;26.930;2023-12-20T12:14:17;7.22;;;3.25;;
10657;SDS011;5377;43.276;26.930;2023-12-20T12:16:44;9.48;;;4.35;;
10657;SDS011;5377;43.276;26.930;2023-12-20T12:19:19;10.70;;;6.68;;
10657;SDS011;5377;43.276;26.930;2023-12-20T12:21:46;11.75;;;7.32;;
10657;SDS011;5377;43.276;26.930;2023-12-20T12:24:14;9.43;;;4.90;;
10657;SDS011;5377;43.276;26.930;2023-12-20T12:26:40;9.85;;;3.97;;
10657;SDS011;5377;43.276;26.930;2023-12-20T12:29:07;5.70;;;3.33;;
10657;SDS011;5377;43.276;26.930;2023-12-20T12:31:34;9.20;;;3.20;;
10657;SDS011;5377;43.276;26.930;2023-12-20T12:34:01;5.13;;;3.72;;
10657;SDS011;5377;43.276;26.930;2023-12-20T12:36:28;5.90;;;2.88;;
10657;SDS011;5377;43.276;26.930;2023-12-20T12:38:56;15.10;;;5.13;;
10657;SDS011;5377;43.276;26.930;2023-12-20T12:41:24;10.55;;;4.40;;
10657;SDS011;5377;43.276;26.930;2023-12-20T12:43:50;7.32;;;4.53;;
10657;SDS011;5377;43.276;26.930;2023-12-20T12:46:17;11.20;;;4.70;;
10657;SDS011;5377;43.276;26.930;2023-12-20T12:48:43;8.30;;;4.75;;
10657;SDS011;5377;43.276;26.930;2023-12-20T12:51:10;11.23;;;5.72;;
10657;SDS011;5377;43.276;26.930;2023-12-20T12:53:38;14.10;;;8.02;;
10657;SDS011;5377;43.276;26.930;2023-12-20T12:56:05;8.13;;;4.80;;
10657;SDS011;5377;43.276;26.930;2023-12-20T12:58:33;6.28;;;4.78;;
10657;SDS011;5377;43.276;26.930;2023-12-20T13:01:00;8.38;;;5.07;;
10657;SDS011;5377;43.276;26.930;2023-12-20T13:03:26;13.45;;;5.45;;
10657;SDS011;5377;43.276;26.930;2023-12-20T13:05:53;9.40;;;4.97;;
10657;SDS011;5377;43.276;26.930;2023-12-20T13:08:20;7.90;;;4.97;;
10657;SDS011;5377;43.276;26.930;2023-12-20T13:10:46;11.15;;;6.18;;
10657;SDS011;5377;43.276;26.930;2023-12-20T13:13:13;13.63;;;6.60;;
10657;SDS011;5377;43.276;26.930;2023-12-20T13:15:41;21.80;;;7.47;;
10657;SDS011;5377;43.276;26.930;2023-12-20T13:18:07;33.13;;;15.25;;
10657;SDS011;5377;43.276;26.930;2023-12-20T13:20:34;53.25;;;21.30;;
10657;SDS011;5377;43.276;26.930;2023-12-20T13:23:00;73.47;;;24.30;;
10657;SDS011;5377;43.276;26.930;2023-12-20T13:25:28;80.85;;;25.10;;
10657;SDS011;5377;43.276;26.930;2023-12-20T13:27:56;32.28;;;10.95;;
10657;SDS011;5377;43.276;26.930;2023-12-20T13:30:22;27.02;;;13.40;;
10657;SDS011;5377;43.276;26.930;2023-12-20T13:32:50;47.28;;;18.08;;
10657;SDS011;5377;43.276;26.930;2023-12-20T13:35:17;65.57;;;21.73;;
10657;SDS011;5377;43.276;26.930;2023-12-20T13:37:43;30.50;;;18.88;;
10657;SDS011;5377;43.276;26.930;2023-12-20T13:40:11;29.65;;;21.13;;
10657;SDS011;5377;43.276;26.930;2023-12-20T13:42:37;44.28;;;22.05;;
10657;SDS011;5377;43.276;26.930;2023-12-20T13:45:04;43.75;;;28.90;;
10657;SDS011;5377;43.276;26.930;2023-12-20T13:47:31;42.88;;;31.73;;
10657;SDS011;5377;43.276;26.930;2023-12-20T13:49:59;47.65;;;31.88;;
10657;SDS011;5377;43.276;26.930;2023-12-20T13:52:25;98.13;;;34.60;;
10657;SDS011;5377;43.276;26.930;2023-12-20T13:54:52;62.88;;;31.33;;
10657;SDS011;5377;43.276;26.930;2023-12-20T13:57:18;53.30;;;32.20;;
10657;SDS011;5377;43.276;26.930;2023-12-20T13:59:45;100.43;;;36.55;;
10657;SDS011;5377;43.276;26.930;2023-12-20T14:02:11;91.18;;;32.65;;
10657;SDS011;5377;43.276;26.930;2023-12-20T14:04:38;84.90;;;31.95;;
10657;SDS011;5377;43.276;26.930;2023-12-20T14:07:07;61.10;;;30.15;;
10657;SDS011;5377;43.276;26.930;2023-12-20T14:09:34;67.55;;;32.85;;
10657;SDS011;5377;43.276;26.930;2023-12-20T14:12:01;95.13;;;36.33;;
10657;SDS011;5377;43.276;26.930;2023-12-20T14:14:27;84.88;;;43.15;;
10657;SDS011;5377;43.276;26.930;2023-12-20T14:16:55;74.07;;;45.65;;
10657;SDS011;5377;43.276;26.930;2023-12-20T14:19:21;108.70;;;43.97;;
10657;SDS011;5377;43.276;26.930;2023-12-20T14:21:48;115.88;;;37.65;;
10657;SDS011;5377;43.276;26.930;2023-12-20T14:24:16;113.35;;;38.83;;